Time;durP1;ratioP1;P1;durP2;ratioP2;P2;SDS_P1;SDS_P2;PMS_P1;PMS_P2;Temp;Humidity;BMP_temperature;BMP_pressure;BME280_temperature;BME280_humidity;BME280_pressure;Samples;Min_cycle;Max_cycle;Signal;HPM_P1;HPM_P2
2024/03/23 00:00:32;;;;;;;;;6.50;4.75;;;;;13.25;74.02;101128.97;5079245;28;73164;-74
2024/03/23 00:02:58;;;;;;;;;8.75;5.00;;;;;13.24;73.43;101129.91;5077879;28;75753;-74
2024/03/23 00:05:25;;;;;;;;;5.00;5.00;;;;;13.25;73.82;101128.97;5070485;28;72128;-75
2024/03/23 00:07:53;;;;;;;;;4.00;4.00;;;;;13.26;74.07;101136.06;5079315;27;58528;-74
2024/03/23 00:10:22;;;;;;;;;5.00;5.00;;;;;13.28;74.30;101136.91;5079528;28;45289;-75
2024/03/23 00:12:48;;;;;;;;;7.00;5.50;;;;;13.28;74.27;101142.28;5079009;28;73488;-74
2024/03/23 00:15:15;;;;;;;;;9.25;7.00;;;;;13.27;74.24;101140.50;5078802;28;73127;-75
2024/03/23 00:17:41;;;;;;;;;8.00;7.75;;;;;13.26;74.29;101140.56;5078628;28;69356;-74
2024/03/23 00:20:08;;;;;;;;;6.75;6.75;;;;;13.22;73.72;101145.16;5078778;28;73187;-75
2024/03/23 00:22:35;;;;;;;;;8.75;7.00;;;;;13.22;73.53;101152.34;5079913;27;46849;-75
2024/03/23 00:25:01;;;;;;;;;7.00;7.00;;;;;13.23;73.45;101148.72;5078324;27;73277;-74
2024/03/23 00:27:27;;;;;;;;;10.00;9.50;;;;;13.25;73.84;101142.38;5079566;28;47604;-75
2024/03/23 00:29:54;;;;;;;;;13.50;10.00;;;;;13.23;73.75;101146.94;5077752;28;60845;-75
2024/03/23 00:32:20;;;;;;;;;7.50;6.50;;;;;13.21;73.93;101148.78;5077622;28;74549;-75
2024/03/23 00:34:46;;;;;;;;;8.50;8.00;;;;;13.22;73.44;101150.53;5078719;27;73144;-75
2024/03/23 00:37:13;;;;;;;;;12.00;12.00;;;;;13.11;73.15;101137.53;5076778;28;69368;-75
2024/03/23 00:39:39;;;;;;;;;9.50;9.50;;;;;13.17;72.84;101149.84;5078198;28;45698;-75
2024/03/23 00:42:06;;;;;;;;;13.75;10.50;;;;;13.18;72.91;101150.69;5079575;28;46161;-74
2024/03/23 00:44:32;;;;;;;;;15.75;12.75;;;;;13.19;72.68;101144.41;5078431;28;73603;-75
2024/03/23 00:46:58;;;;;;;;;9.00;8.00;;;;;13.19;72.62;101136.38;5078847;28;49311;-75
2024/03/23 00:49:25;;;;;;;;;7.50;7.50;;;;;13.18;73.10;101143.56;5078616;28;72148;-74
2024/03/23 00:51:51;;;;;;;;;12.25;12.25;;;;;13.14;73.20;101142.75;5079529;28;45338;-74
2024/03/23 00:54:16;;;;;;;;;13.25;8.75;;;;;13.13;73.36;101137.47;5078931;28;45665;-75
2024/03/23 00:56:42;;;;;;;;;13.50;12.00;;;;;13.10;73.62;101141.13;5079476;27;45474;-74
2024/03/23 00:59:07;;;;;;;;;9.75;8.75;;;;;13.03;72.80;101130.69;5079634;28;45311;-74
2024/03/23 01:01:32;;;;;;;;;13.00;12.00;;;;;13.05;72.75;101128.84;5078024;27;46055;-75
2024/03/23 01:03:57;;;;;;;;;11.00;9.00;;;;;13.10;72.82;101138.47;5075864;28;53571;-75
2024/03/23 01:06:23;;;;;;;;;14.00;9.50;;;;;13.08;72.46;101139.44;5073503;28;45492;-74
2024/03/23 01:08:48;;;;;;;;;7.75;6.75;;;;;13.12;72.59;101138.41;5078499;27;59200;-74
2024/03/23 01:11:14;;;;;;;;;10.75;8.00;;;;;13.08;72.04;101129.59;5079154;28;45252;-75
2024/03/23 01:13:39;;;;;;;;;8.00;7.50;;;;;13.12;72.18;101136.59;5079060;27;45347;-75
2024/03/23 01:16:04;;;;;;;;;6.75;6.75;;;;;13.12;72.41;101136.59;5078690;28;55081;-74
2024/03/23 01:18:30;;;;;;;;;13.25;9.25;;;;;13.11;72.40;101142.91;5078829;27;45260;-75
2024/03/23 01:20:55;;;;;;;;;10.50;8.75;;;;;13.08;72.12;101140.34;5078980;27;46006;-75
2024/03/23 01:23:20;;;;;;;;;7.50;7.00;;;;;13.12;72.38;101135.72;5078723;27;45382;-75
2024/03/23 01:25:53;;;;;;;;;8.00;7.00;;;;;13.14;71.85;101136.53;5078757;28;45409;-75
2024/03/23 01:28:19;;;;;;;;;12.75;8.25;;;;;13.11;72.04;101137.53;5073814;27;45651;-74
2024/03/23 01:30:44;;;;;;;;;7.00;6.00;;;;;13.13;71.91;101150.84;5078770;27;45260;-75
2024/03/23 01:33:10;;;;;;;;;11.25;7.00;;;;;13.11;72.12;101142.91;5077001;27;45391;-74
2024/03/23 01:35:35;;;;;;;;;8.75;7.75;;;;;13.13;72.30;101140.13;5078798;28;45419;-75
2024/03/23 01:38:00;;;;;;;;;7.00;6.00;;;;;13.13;71.91;101145.50;5076585;27;45500;-75
2024/03/23 01:40:27;;;;;;;;;9.25;7.50;;;;;13.02;71.48;101119.09;5078243;28;60657;-75
2024/03/23 01:42:56;;;;;;;;;10.00;7.00;;;;;13.12;72.05;101141.94;5077556;28;45536;-75
2024/03/23 01:45:22;;;;;;;;;6.75;6.00;;;;;12.96;71.92;101122.91;5086552;27;45342;-75
2024/03/23 01:47:49;;;;;;;;;7.25;6.25;;;;;13.07;71.72;101141.25;5078150;27;45538;-75
2024/03/23 01:50:15;;;;;;;;;10.75;8.00;;;;;13.03;71.48;101128.00;5078602;27;45626;-74
2024/03/23 01:52:40;;;;;;;;;7.25;6.25;;;;;13.08;71.68;101142.13;5078557;27;45626;-75
2024/03/23 01:55:06;;;;;;;;;7.50;7.50;;;;;13.04;71.90;101136.00;5078699;27;45482;-75
2024/03/23 01:57:31;;;;;;;;;10.50;8.25;;;;;13.07;71.67;101148.41;5078694;27;45472;-75
2024/03/23 01:59:56;;;;;;;;;8.00;6.50;;;;;13.09;71.66;101151.91;5077827;28;63899;-74
2024/03/23 02:02:22;;;;;;;;;7.00;5.00;;;;;13.08;71.49;101153.72;5077662;27;45478;-75
2024/03/23 02:04:47;;;;;;;;;5.00;5.00;;;;;13.01;71.35;101140.59;5069924;28;47569;-75
2024/03/23 02:07:12;;;;;;;;;7.00;5.00;;;;;13.03;71.19;101138.72;5082070;27;45469;-75
2024/03/23 02:09:38;;;;;;;;;5.25;4.25;;;;;12.97;70.85;101142.50;5081698;27;45400;-74
2024/03/23 02:12:03;;;;;;;;;8.25;5.25;;;;;13.01;71.22;101151.31;5081942;27;45385;-75
2024/03/23 02:14:28;;;;;;;;;5.00;3.25;;;;;12.95;70.95;101144.38;5081992;28;45516;-75
2024/03/23 02:16:54;;;;;;;;;11.00;5.00;;;;;12.96;70.87;101149.69;5081480;28;45372;-75
2024/03/23 02:19:19;;;;;;;;;8.00;4.75;;;;;12.97;70.85;101162.13;5080971;28;66987;-75
2024/03/23 02:21:46;;;;;;;;;4.25;4.00;;;;;12.89;70.83;101144.59;5080097;28;56936;-75
2024/03/23 02:24:12;;;;;;;;;5.00;3.50;;;;;12.92;70.58;101153.38;5081688;28;45494;-75
2024/03/23 02:26:37;;;;;;;;;3.00;3.00;;;;;12.83;70.60;101156.41;5080074;28;45373;-75
2024/03/23 02:29:02;;;;;;;;;4.25;3.75;;;;;12.78;70.45;101145.84;5081652;27;45385;-75
2024/03/23 02:31:28;;;;;;;;;5.25;2.00;;;;;12.78;70.00;101155.69;5080524;27;48765;-75
2024/03/23 02:33:53;;;;;;;;;3.00;2.75;;;;;12.78;70.21;101166.41;5080282;27;45445;-75
2024/03/23 02:36:20;;;;;;;;;7.25;4.00;;;;;12.66;70.54;101167.69;5078136;27;45547;-75
2024/03/23 02:38:46;;;;;;;;;5.00;3.00;;;;;12.62;70.93;101165.19;5097120;27;47270;-75
2024/03/23 02:41:12;;;;;;;;;4.25;3.00;;;;;12.67;70.46;101173.94;5081415;27;45425;-76
2024/03/23 02:43:37;;;;;;;;;4.00;3.00;;;;;12.58;70.25;101173.31;5081605;27;45474;-75
2024/03/23 02:46:04;;;;;;;;;4.75;2.25;;;;;12.63;69.41;101181.22;5086675;27;45570;-75
2024/03/23 02:48:29;;;;;;;;;3.25;2.50;;;;;12.60;69.75;101174.13;5080298;27;45480;-75
2024/03/23 02:50:55;;;;;;;;;2.75;2.75;;;;;12.55;70.48;101172.56;5081514;28;45377;-75
2024/03/23 02:53:20;;;;;;;;;3.00;2.50;;;;;12.49;70.31;101170.94;5081314;27;45488;-75
2024/03/23 02:55:45;;;;;;;;;2.50;2.50;;;;;12.47;70.76;101159.41;5081406;28;45519;-75
2024/03/23 02:58:11;;;;;;;;;2.25;2.25;;;;;12.53;70.68;101182.41;5080884;28;45482;-75
2024/03/23 03:00:36;;;;;;;;;7.00;2.00;;;;;12.50;70.73;101186.09;5081336;27;45489;-76
2024/03/23 03:03:03;;;;;;;;;6.00;2.00;;;;;12.36;70.56;101169.59;5080205;27;45438;-75
2024/03/23 03:05:28;;;;;;;;;6.50;2.25;;;;;12.33;70.49;101178.63;5079786;28;45489;-75
2024/03/23 03:07:53;;;;;;;;;2.00;1.25;;;;;12.39;70.19;101185.56;5081020;27;47090;-75
2024/03/23 03:10:19;;;;;;;;;3.75;2.50;;;;;12.35;69.96;101178.56;5080895;28;45325;-75
2024/03/23 03:12:44;;;;;;;;;1.75;1.00;;;;;12.42;69.68;101193.50;5081016;27;45336;-75
2024/03/23 03:15:10;;;;;;;;;4.25;1.75;;;;;12.33;69.21;101185.75;5080762;28;45602;-75
2024/03/23 03:17:35;;;;;;;;;4.25;2.00;;;;;12.37;69.26;101195.44;5080094;28;47990;-75
2024/03/23 03:20:00;;;;;;;;;3.75;2.00;;;;;12.26;69.25;101184.22;5080689;28;45474;-75
2024/03/23 03:22:26;;;;;;;;;1.75;1.00;;;;;12.35;68.87;101208.03;5080277;27;45351;-75
2024/03/23 03:24:51;;;;;;;;;2.75;2.00;;;;;12.33;68.97;101204.50;5080651;27;45469;-75
2024/03/23 03:27:16;;;;;;;;;8.50;2.50;;;;;12.28;68.68;101204.66;5080595;27;47174;-75
2024/03/23 03:29:42;;;;;;;;;3.25;2.25;;;;;12.16;68.37;101195.22;5080332;27;45345;-75
2024/03/23 03:32:07;;;;;;;;;3.00;1.75;;;;;12.21;68.47;101206.66;5080642;27;45315;-75
2024/03/23 03:34:32;;;;;;;;;2.00;2.00;;;;;12.22;68.29;101210.22;5080077;27;45610;-75
2024/03/23 03:36:58;;;;;;;;;2.75;2.75;;;;;12.21;68.22;101200.41;5078565;28;46158;-75
2024/03/23 03:39:24;;;;;;;;;2.75;1.50;;;;;12.20;67.86;101209.38;5080400;27;45538;-75
2024/03/23 03:41:50;;;;;;;;;4.75;1.00;;;;;12.17;68.27;101214.81;5080815;28;45334;-75
2024/03/23 03:44:16;;;;;;;;;2.75;2.75;;;;;12.08;68.01;101207.97;5080222;27;45675;-75
2024/03/23 03:46:41;;;;;;;;;2.25;1.00;;;;;12.12;68.19;101212.28;5087295;27;45613;-75
2024/03/23 03:49:06;;;;;;;;;2.00;2.00;;;;;12.07;67.98;101210.69;5080506;28;45346;-75
2024/03/23 03:51:32;;;;;;;;;5.00;2.00;;;;;12.13;67.74;101221.19;5080637;28;45349;-75
2024/03/23 03:53:57;;;;;;;;;5.50;1.00;;;;;12.13;67.93;101230.13;5078880;28;59721;-74
2024/03/23 03:56:22;;;;;;;;;2.00;1.00;;;;;12.12;67.41;101231.03;5080260;28;48129;-75
2024/03/23 03:58:48;;;;;;;;;1.75;1.00;;;;;12.10;67.37;101224.84;5078659;28;45686;-78
2024/03/23 04:01:13;;;;;;;;;1.75;0.25;;;;;11.98;67.63;101220.75;5080176;27;45534;-76
2024/03/23 04:03:43;;;;;;;;;5.25;3.00;;;;;11.96;67.63;101219.94;5079640;28;45482;-75
2024/03/23 04:06:08;;;;;;;;;1.50;1.00;;;;;12.07;67.75;101237.44;5073937;28;45470;-75
2024/03/23 04:08:34;;;;;;;;;2.00;2.00;;;;;12.03;67.88;101242.91;5080238;27;45420;-75
2024/03/23 04:10:59;;;;;;;;;4.00;2.00;;;;;11.95;67.85;101239.56;5080491;27;45420;-75
2024/03/23 04:13:24;;;;;;;;;3.25;2.00;;;;;11.86;67.50;101234.44;5079742;27;45532;-74
2024/03/23 04:15:54;;;;;;;;;1.00;1.00;;;;;11.90;67.56;101246.81;5079901;27;46105;-75
2024/03/23 04:18:19;;;;;;;;;2.25;1.75;;;;;11.84;67.73;101238.97;5079697;28;45559;-76
2024/03/23 04:20:44;;;;;;;;;2.50;1.25;;;;;11.82;67.53;101249.72;5080081;28;45239;-75
2024/03/23 04:23:10;;;;;;;;;3.75;3.50;;;;;11.75;67.67;101226.75;5078699;28;58742;-75
2024/03/23 04:25:35;;;;;;;;;2.00;2.00;;;;;11.78;67.55;101224.00;5079677;27;45316;-75
2024/03/23 04:28:00;;;;;;;;;3.75;1.25;;;;;11.77;67.35;101232.94;5078832;27;45653;-75
2024/03/23 04:30:28;;;;;;;;;2.25;1.00;;;;;11.84;67.55;101242.56;5080044;27;45383;-75
2024/03/23 04:32:53;;;;;;;;;3.00;2.00;;;;;11.71;67.25;101217.09;5079268;27;45461;-75
2024/03/23 04:35:21;;;;;;;;;2.00;2.00;;;;;11.84;67.51;101245.22;5079665;28;45400;-75
2024/03/23 04:37:46;;;;;;;;;5.00;1.00;;;;;11.89;67.14;101258.44;5077475;27;45624;-75
2024/03/23 04:40:12;;;;;;;;;4.50;2.00;;;;;11.73;67.19;101231.28;5079548;28;49296;-75
2024/03/23 04:42:37;;;;;;;;;5.00;3.00;;;;;11.85;67.14;101254.97;5079312;27;45499;-76
2024/03/23 04:45:03;;;;;;;;;2.75;1.25;;;;;11.81;67.37;101239.06;5102006;27;46259;-75
2024/03/23 04:47:29;;;;;;;;;6.25;1.75;;;;;11.89;67.31;101260.25;5080562;27;45348;-75
2024/03/23 04:49:54;;;;;;;;;8.00;4.00;;;;;11.86;67.50;101269.22;5079810;27;45239;-75
2024/03/23 04:52:19;;;;;;;;;3.00;2.00;;;;;11.75;67.30;101253.50;5078418;28;48539;-75
2024/03/23 04:54:45;;;;;;;;;2.50;2.00;;;;;11.82;67.29;101278.28;5077770;28;53604;-75
2024/03/23 04:57:11;;;;;;;;;3.00;1.50;;;;;11.75;66.96;101260.66;5079289;28;45409;-75
2024/03/23 04:59:36;;;;;;;;;4.25;2.00;;;;;11.72;67.22;101258.06;5079654;28;45264;-75
2024/03/23 05:02:02;;;;;;;;;11.00;1.25;;;;;11.76;67.13;101271.31;5078679;27;45337;-75
2024/03/23 05:04:28;;;;;;;;;4.00;2.25;;;;;11.75;66.88;101282.91;5071315;27;45266;-76
2024/03/23 05:06:53;;;;;;;;;3.00;2.00;;;;;11.73;66.77;101286.53;5077371;28;45512;-75
2024/03/23 05:09:19;;;;;;;;;3.75;1.00;;;;;11.71;66.98;101285.72;5079399;27;45381;-75
2024/03/23 05:11:45;;;;;;;;;3.25;2.00;;;;;11.75;66.92;101290.94;5079149;28;45719;-75
2024/03/23 05:14:12;;;;;;;;;4.50;2.75;;;;;11.61;66.74;101267.28;5079229;27;46298;-75
2024/03/23 05:16:38;;;;;;;;;3.50;1.00;;;;;11.64;66.95;101282.34;5078613;27;45533;-75
2024/03/23 05:19:03;;;;;;;;;4.00;2.00;;;;;11.70;67.07;101298.22;5078555;28;49559;-75
2024/03/23 05:21:28;;;;;;;;;5.75;1.00;;;;;11.64;66.80;101293.03;5076572;28;56343;-75
2024/03/23 05:23:54;;;;;;;;;5.50;2.00;;;;;11.70;66.56;101308.06;5078360;28;55380;-75
2024/03/23 05:26:19;;;;;;;;;1.00;1.00;;;;;11.61;66.24;101291.34;5076036;28;45386;-75
2024/03/23 05:28:45;;;;;;;;;2.75;2.00;;;;;11.64;66.28;101307.31;5079169;27;45421;-75
2024/03/23 05:31:10;;;;;;;;;1.25;1.00;;;;;11.61;66.19;101303.81;5077371;28;45791;-74
2024/03/23 05:33:38;;;;;;;;;0.25;0.25;;;;;11.57;65.84;101304.84;5078505;28;58786;-75
2024/03/23 05:36:04;;;;;;;;;1.00;1.00;;;;;11.61;65.83;101307.38;5078861;27;45601;-75
2024/03/23 05:38:29;;;;;;;;;3.25;1.75;;;;;11.61;65.98;101306.50;5076554;27;45774;-75
2024/03/23 05:40:58;;;;;;;;;1.25;0.25;;;;;11.59;65.98;101309.19;5081050;28;45339;-75
2024/03/23 05:43:23;;;;;;;;;1.00;0.00;;;;;11.38;65.48;101283.09;5081209;28;47162;-75
2024/03/23 05:46:00;;;;;;;;;0.00;0.00;;;;;11.56;65.70;101311.09;5081944;28;45738;-75
2024/03/23 05:48:27;;;;;;;;;3.75;3.75;;;;;11.49;65.34;101313.94;5082713;27;45383;-75
2024/03/23 05:50:52;;;;;;;;;1.00;1.00;;;;;11.51;65.37;101308.56;5082297;27;45481;-75
2024/03/23 05:53:20;;;;;;;;;0.50;0.00;;;;;11.48;65.44;101319.34;5081189;27;45374;-75
2024/03/23 05:55:47;;;;;;;;;0.75;0.75;;;;;11.46;65.58;101311.34;5080968;28;45458;-75
2024/03/23 05:58:14;;;;;;;;;1.75;0.00;;;;;11.43;65.46;101321.25;5082358;27;45433;-75
2024/03/23 06:00:40;;;;;;;;;0.00;0.00;;;;;11.36;65.29;101320.53;5082220;27;45475;-75
2024/03/23 06:03:05;;;;;;;;;0.25;0.25;;;;;11.45;65.14;101336.31;5081689;27;46232;-75
2024/03/23 06:05:30;;;;;;;;;1.50;0.00;;;;;11.40;64.91;101330.22;5073526;27;52605;-74
2024/03/23 06:07:55;;;;;;;;;0.25;0.25;;;;;11.44;65.39;101329.25;5081823;27;45603;-75
2024/03/23 06:10:21;;;;;;;;;3.00;0.00;;;;;11.38;65.05;101326.72;5081722;28;46710;-75
2024/03/23 06:12:46;;;;;;;;;0.00;0.00;;;;;11.35;65.11;101329.47;5081975;28;45484;-75
2024/03/23 06:15:12;;;;;;;;;0.00;0.00;;;;;11.29;65.35;101316.25;5081847;27;45249;-75
2024/03/23 06:17:38;;;;;;;;;2.00;0.00;;;;;11.24;64.88;101323.53;5080428;28;45514;-75
2024/03/23 06:20:04;;;;;;;;;1.00;1.00;;;;;11.30;65.45;101334.94;5081985;27;45609;-75
2024/03/23 06:22:29;;;;;;;;;1.00;1.00;;;;;11.24;65.70;101323.53;5080062;27;45755;-75
2024/03/23 06:24:55;;;;;;;;;1.00;0.00;;;;;11.20;65.25;101336.09;5081351;27;45480;-75
2024/03/23 06:27:20;;;;;;;;;1.00;0.00;;;;;11.27;65.12;101344.81;5080078;28;45606;-69
2024/03/23 06:29:45;;;;;;;;;1.25;0.00;;;;;11.19;65.61;101350.34;5080832;27;45619;-70
2024/03/23 06:32:10;;;;;;;;;0.00;0.00;;;;;11.21;64.99;101351.22;5083246;27;48800;-72
2024/03/23 06:34:36;;;;;;;;;0.00;0.00;;;;;11.21;65.67;101350.31;5080023;28;45311;-72
2024/03/23 06:37:02;;;;;;;;;2.00;0.00;;;;;11.25;65.56;101366.25;5074582;28;45389;-71
2024/03/23 06:39:27;;;;;;;;;0.50;0.00;;;;;11.24;65.63;101363.59;5079397;28;45651;-71
2024/03/23 06:41:54;;;;;;;;;1.25;0.00;;;;;11.27;65.70;101364.41;5080572;27;45475;-72
2024/03/23 06:44:19;;;;;;;;;0.50;0.25;;;;;11.20;65.54;101360.13;5081346;27;45552;-71
2024/03/23 06:46:45;;;;;;;;;1.00;1.00;;;;;11.25;65.42;101376.06;5080635;28;45380;-72
2024/03/23 06:49:11;;;;;;;;;0.75;0.00;;;;;11.23;65.93;101373.44;5080801;27;45474;-72
2024/03/23 06:51:37;;;;;;;;;0.00;0.00;;;;;11.22;65.40;101370.78;5085751;27;47300;-72
2024/03/23 06:54:03;;;;;;;;;0.25;0.00;;;;;11.28;65.51;101378.66;5070868;27;45554;-72
2024/03/23 06:56:29;;;;;;;;;4.00;1.50;;;;;11.37;65.86;101386.44;5080008;28;45423;-72
2024/03/23 06:58:55;;;;;;;;;1.75;0.00;;;;;11.35;65.81;101384.72;5078602;28;45556;-73
2024/03/23 07:01:20;;;;;;;;;2.75;0.50;;;;;11.34;65.58;101374.94;5079251;28;47280;-72
2024/03/23 07:03:46;;;;;;;;;1.75;0.00;;;;;11.29;65.41;101375.97;5079208;28;45380;-73
2024/03/23 07:06:11;;;;;;;;;2.00;0.50;;;;;11.30;65.81;101379.50;5070366;28;45331;-73
2024/03/23 07:08:36;;;;;;;;;1.75;0.00;;;;;11.30;66.24;101391.06;5072873;27;45521;-71
2024/03/23 07:11:02;;;;;;;;;0.50;0.50;;;;;11.25;66.89;101403.66;5068278;28;47884;-72
2024/03/23 07:13:28;;;;;;;;;1.00;0.00;;;;;11.23;67.33;101420.66;5079444;27;45633;-72
2024/03/23 07:15:55;;;;;;;;;1.00;0.00;;;;;11.21;66.53;101446.53;5079066;27;45420;-72
2024/03/23 07:18:21;;;;;;;;;0.00;0.00;;;;;11.13;66.40;101436.91;5079636;27;45628;-77
2024/03/23 07:21:06;;;;;;;;;0.75;0.00;;;;;10.99;66.80;101417.63;5078987;28;45430;-77
2024/03/23 07:23:32;;;;;;;;;3.00;0.00;;;;;10.92;67.48;101408.88;5078760;27;45467;-79
2024/03/23 07:26:04;;;;;;;;;0.00;0.00;;;;;10.91;66.61;101415.16;5080417;27;45672;-80
2024/03/23 07:28:34;;;;;;;;;0.00;0.00;;;;;10.86;67.02;101405.47;5080341;27;45251;-78
2024/03/23 07:31:08;;;;;;;;;0.00;0.00;;;;;10.86;67.38;101402.81;5079652;28;46227;-80
2024/03/23 07:33:33;;;;;;;;;2.00;0.00;;;;;10.79;68.55;101399.38;5076721;28;45505;-76
2024/03/23 07:35:59;;;;;;;;;0.00;0.00;;;;;10.72;67.97;101385.31;5078490;28;45292;-75
2024/03/23 07:38:26;;;;;;;;;0.00;0.00;;;;;10.81;68.74;101400.25;5078539;27;45479;-77
2024/03/23 07:40:55;;;;;;;;;1.00;1.00;;;;;10.80;69.50;101401.16;5082872;27;45347;-75
2024/03/23 07:43:22;;;;;;;;;2.75;1.50;;;;;10.59;69.43;101375.81;5083499;27;45572;-76
2024/03/23 07:45:53;;;;;;;;;1.25;0.25;;;;;10.67;69.97;101383.66;5081301;27;45406;-76
2024/03/23 07:48:19;;;;;;;;;0.50;0.00;;;;;10.71;70.13;101380.03;5079549;28;45921;-78
2024/03/23 07:50:44;;;;;;;;;0.00;0.00;;;;;10.75;70.34;101393.25;5078812;27;46249;-79
2024/03/23 07:53:09;;;;;;;;;1.25;1.00;;;;;10.77;70.31;101384.34;5092405;27;46005;-78
2024/03/23 07:55:35;;;;;;;;;1.25;0.25;;;;;10.82;70.85;101390.44;5071755;28;45436;-80
2024/03/23 07:58:00;;;;;;;;;1.00;1.00;;;;;10.79;71.06;101366.47;5079640;28;48754;-80
2024/03/23 08:00:25;;;;;;;;;0.00;0.00;;;;;10.83;70.48;101370.84;5080191;28;54033;-80
2024/03/23 08:02:51;;;;;;;;;0.25;0.25;;;;;10.93;70.90;101383.06;5078465;28;52959;-79
2024/03/23 08:05:16;;;;;;;;;3.00;0.75;;;;;10.95;70.45;101389.25;5078933;28;45459;-79
2024/03/23 08:07:42;;;;;;;;;0.50;0.00;;;;;10.90;70.35;101381.34;5070197;27;45666;-80
2024/03/23 08:10:07;;;;;;;;;1.00;1.00;;;;;10.83;71.04;101377.06;5084333;27;46341;-79
2024/03/23 08:12:32;;;;;;;;;1.25;0.75;;;;;10.91;69.71;101398.25;5079657;28;45550;-79
2024/03/23 08:14:57;;;;;;;;;1.00;0.50;;;;;10.87;69.83;101378.72;5080115;28;45533;-78
2024/03/23 08:17:23;;;;;;;;;2.00;1.00;;;;;10.85;69.45;101374.34;5077433;28;62789;-78
2024/03/23 08:19:48;;;;;;;;;0.00;0.00;;;;;10.90;69.69;101377.78;5078776;27;52671;-78
2024/03/23 08:22:13;;;;;;;;;2.25;1.00;;;;;10.92;69.91;101384.84;5078498;28;47573;-78
2024/03/23 08:24:39;;;;;;;;;1.00;1.00;;;;;10.93;69.89;101396.44;5081063;27;48389;-78
2024/03/23 08:27:04;;;;;;;;;0.00;0.00;;;;;10.92;69.26;101387.50;5061523;28;45576;-78
2024/03/23 08:29:30;;;;;;;;;0.00;0.00;;;;;11.00;69.07;101398.03;5079861;28;45640;-78
2024/03/23 08:31:55;;;;;;;;;1.00;0.00;;;;;10.94;69.59;101396.41;5078120;28;45403;-78
2024/03/23 08:34:20;;;;;;;;;0.00;0.00;;;;;11.04;69.29;101412.19;5079122;27;53279;-78
2024/03/23 08:36:46;;;;;;;;;1.00;0.00;;;;;11.05;69.36;101404.13;5079451;28;45291;-77
2024/03/23 08:39:11;;;;;;;;;2.00;1.00;;;;;10.97;69.26;101398.09;5079842;27;46084;-78
2024/03/23 08:41:36;;;;;;;;;3.25;0.00;;;;;11.07;68.90;101412.13;5079580;27;45523;-78
2024/03/23 08:44:02;;;;;;;;;1.00;1.00;;;;;11.12;68.24;101412.88;5079691;27;45491;-78
2024/03/23 08:46:27;;;;;;;;;1.75;0.75;;;;;11.15;68.53;101401.25;5084844;27;45536;-78
2024/03/23 08:48:53;;;;;;;;;0.00;0.00;;;;;11.08;67.80;101395.19;5078349;27;46518;-77
2024/03/23 08:51:18;;;;;;;;;0.50;0.00;;;;;11.20;68.19;101397.56;5079525;27;45389;-78
2024/03/23 08:53:43;;;;;;;;;1.75;0.00;;;;;11.14;67.93;101387.00;5079531;27;45561;-78
2024/03/23 08:56:09;;;;;;;;;0.50;0.50;;;;;11.21;68.15;101402.00;5079666;27;45328;-78
2024/03/23 08:58:36;;;;;;;;;1.00;0.00;;;;;11.26;67.81;101402.75;5078032;28;46043;-78
2024/03/23 09:01:09;;;;;;;;;0.00;0.00;;;;;11.31;67.98;101394.63;5079180;27;46529;-78
2024/03/23 09:03:35;;;;;;;;;0.00;0.00;;;;;11.35;67.37;101404.31;5091834;27;45432;-78
2024/03/23 09:06:02;;;;;;;;;0.00;0.00;;;;;11.39;66.91;101408.66;5078844;28;45460;-78
2024/03/23 09:08:28;;;;;;;;;0.50;0.50;;;;;11.41;67.26;101406.84;5078416;28;48050;-78
2024/03/23 09:10:53;;;;;;;;;2.00;0.25;;;;;11.38;67.33;101390.88;5079454;27;45385;-78
2024/03/23 09:13:19;;;;;;;;;0.00;0.00;;;;;11.45;66.32;101403.16;5078584;27;45377;-78
2024/03/23 09:15:51;;;;;;;;;1.00;1.00;;;;;11.45;66.33;101405.84;5078999;27;45553;-78
2024/03/23 09:18:17;;;;;;;;;1.00;1.00;;;;;11.47;66.49;101414.69;5069945;28;46349;-79
2024/03/23 09:20:42;;;;;;;;;1.00;0.75;;;;;11.51;66.42;101399.47;5078700;27;45510;-78
2024/03/23 09:23:08;;;;;;;;;0.25;0.00;;;;;11.51;66.08;101404.81;5079273;28;45591;-78
2024/03/23 09:25:40;;;;;;;;;0.00;0.00;;;;;11.49;65.34;101399.50;5077488;28;45587;-78
2024/03/23 09:28:08;;;;;;;;;1.75;0.00;;;;;11.56;66.13;101402.00;5078608;27;45565;-79
2024/03/23 09:30:34;;;;;;;;;1.00;0.00;;;;;11.49;65.43;101379.88;5078976;27;45486;-79
2024/03/23 09:32:59;;;;;;;;;1.00;0.25;;;;;11.59;66.02;101385.88;5078861;27;45411;-78
2024/03/23 09:35:24;;;;;;;;;0.00;0.00;;;;;11.61;66.00;101379.59;5078744;28;45681;-78
2024/03/23 09:37:49;;;;;;;;;1.75;0.75;;;;;11.66;66.77;101376.75;5076931;27;45430;-79
2024/03/23 09:40:15;;;;;;;;;2.00;0.00;;;;;11.77;65.54;101389.88;5076713;28;65829;-78
2024/03/23 09:42:46;;;;;;;;;1.75;0.00;;;;;11.77;64.96;101411.25;5065558;28;45416;-79
2024/03/23 09:45:20;;;;;;;;;0.00;0.00;;;;;11.79;65.05;101396.91;5075675;27;45521;-79
2024/03/23 09:47:46;;;;;;;;;0.00;0.00;;;;;11.76;64.67;101393.44;5078448;27;46362;-78
2024/03/23 09:50:12;;;;;;;;;0.00;0.00;;;;;11.71;65.00;101384.66;5078385;27;45326;-79
2024/03/23 09:52:38;;;;;;;;;0.00;0.00;;;;;11.67;65.25;101378.53;5079011;28;45394;-79
2024/03/23 09:55:04;;;;;;;;;0.00;0.00;;;;;11.72;65.61;101379.28;5078790;27;45639;-79
2024/03/23 09:57:29;;;;;;;;;2.00;0.00;;;;;11.72;65.53;101376.63;5078328;27;46304;-79
2024/03/23 09:59:56;;;;;;;;;1.00;0.00;;;;;11.71;65.93;101368.63;5076940;27;45520;-79
2024/03/23 10:02:22;;;;;;;;;0.75;0.75;;;;;11.74;65.52;101368.56;5076965;27;45641;-79
2024/03/23 10:04:48;;;;;;;;;1.25;0.25;;;;;11.75;66.02;101370.31;5078246;27;45527;-79
2024/03/23 10:07:15;;;;;;;;;0.00;0.00;;;;;11.76;66.08;101369.38;5078290;27;45522;-79
2024/03/23 10:09:40;;;;;;;;;1.00;0.00;;;;;11.78;64.67;101370.25;5078385;27;45326;-79
2024/03/23 10:12:16;;;;;;;;;1.00;1.00;;;;;11.79;64.74;101362.13;5078755;27;45330;-79
2024/03/23 10:14:42;;;;;;;;;0.00;0.00;;;;;11.81;65.74;101370.13;5078321;27;45500;-79
2024/03/23 10:17:24;;;;;;;;;1.00;1.00;;;;;11.84;65.07;101362.03;5076079;27;46907;-79
2024/03/23 10:19:52;;;;;;;;;0.00;0.00;;;;;11.86;64.54;101362.84;5078474;27;45548;-79
2024/03/23 10:22:19;;;;;;;;;2.25;0.00;;;;;11.89;64.67;101362.78;5078183;27;45353;-79
2024/03/23 10:24:44;;;;;;;;;1.00;1.00;;;;;11.93;64.56;101360.91;5076912;28;45548;-79
2024/03/23 10:27:15;;;;;;;;;2.00;0.75;;;;;11.87;65.10;101343.22;5080638;27;45472;-80
2024/03/23 10:29:41;;;;;;;;;0.50;0.50;;;;;11.97;64.46;101344.75;5082002;27;45342;-79
2024/03/23 10:32:11;;;;;;;;;0.75;0.75;;;;;12.00;64.94;101347.34;5080817;27;45312;-79
2024/03/23 10:34:37;;;;;;;;;1.00;0.00;;;;;12.04;64.29;101345.44;5081832;28;45564;-79
2024/03/23 10:37:03;;;;;;;;;1.50;1.00;;;;;12.04;64.53;101335.63;5080664;27;46257;-79
2024/03/23 10:39:33;;;;;;;;;2.00;1.00;;;;;12.12;63.95;101337.19;5081754;27;45515;-79
2024/03/23 10:42:01;;;;;;;;;0.75;0.50;;;;;12.12;63.04;101322.00;5081047;27;45351;-79
2024/03/23 10:44:29;;;;;;;;;1.00;1.00;;;;;12.15;63.12;101319.25;5083056;27;45431;-79
2024/03/23 10:46:59;;;;;;;;;2.00;0.25;;;;;12.22;63.25;101319.94;5085507;27;45387;-79
2024/03/23 10:49:26;;;;;;;;;1.00;1.00;;;;;12.19;62.55;101302.16;5081582;27;45835;-79
2024/03/23 10:51:52;;;;;;;;;0.50;0.00;;;;;12.25;61.58;101313.63;5081624;28;45343;-80
2024/03/23 10:54:18;;;;;;;;;0.00;0.00;;;;;12.30;61.78;101307.22;5081460;28;45432;-79
2024/03/23 10:56:45;;;;;;;;;2.50;1.00;;;;;12.35;61.60;101304.41;5081382;27;45267;-79
2024/03/23 10:59:13;;;;;;;;;0.25;0.00;;;;;12.34;61.46;101284.75;5080615;27;45259;-80
2024/03/23 11:01:54;;;;;;;;;2.50;0.00;;;;;12.42;60.63;101292.56;5080923;28;45434;-79
2024/03/23 11:04:49;;;;;;;;;1.00;0.00;;;;;12.51;59.90;101292.28;5074871;27;45286;-79
2024/03/23 11:07:23;;;;;;;;;0.00;0.00;;;;;12.54;58.50;101292.16;5062350;28;46286;-79
2024/03/23 11:09:53;;;;;;;;;0.00;0.00;;;;;12.45;57.43;101268.38;5081224;28;45258;-80
2024/03/23 11:12:21;;;;;;;;;0.00;0.00;;;;;12.58;58.22;101287.63;5081357;27;45445;-80
2024/03/23 11:14:49;;;;;;;;;1.25;1.00;;;;;12.60;58.13;101275.91;5081454;27;45518;-80
2024/03/23 11:17:18;;;;;;;;;0.00;0.00;;;;;12.57;57.67;101267.09;5080643;27;45766;-80
2024/03/23 11:19:43;;;;;;;;;0.00;0.00;;;;;12.57;57.49;101256.38;5080916;27;45443;-79